createdAt,value
2018-01-31T01:52:20.422Z,1018.10
2018-01-31T01:52:23.344Z,1014.59
2018-01-31T01:53:23.335Z,1014.59
2018-01-31T01:54:23.328Z,1014.56
2018-01-31T01:55:23.323Z,1014.60
2018-01-31T01:56:23.314Z,1014.60
2018-01-31T01:57:23.306Z,1014.58
2018-01-31T01:58:23.295Z,1014.56
2018-01-31T01:59:23.290Z,1014.56
2018-01-31T02:00:23.283Z,1014.57
2018-01-31T02:01:23.274Z,1014.55
2018-01-31T02:02:23.268Z,1014.48
2018-01-31T02:03:23.260Z,1014.48
2018-01-31T02:04:23.252Z,1014.43
2018-01-31T02:05:23.245Z,1014.40
2018-01-31T02:06:23.238Z,1014.36
2018-01-31T02:07:23.226Z,1014.34
2018-01-31T02:08:23.221Z,1014.31
2018-01-31T02:09:23.212Z,1014.29
2018-01-31T02:10:23.205Z,1014.32
2018-01-31T02:11:23.198Z,1014.21
2018-01-31T02:12:23.191Z,1014.24
2018-01-31T02:13:23.185Z,1014.19
2018-01-31T02:14:23.174Z,1014.13
2018-01-31T02:15:23.167Z,1014.13
2018-01-31T02:16:23.162Z,1014.12
2018-01-31T02:17:23.150Z,1014.07
2018-01-31T02:18:23.146Z,1014.09
2018-01-31T02:19:23.138Z,1014.03
2018-01-31T02:20:23.128Z,1014.03
2018-01-31T02:21:23.125Z,1014.01
2018-01-31T02:22:23.113Z,1013.98
2018-01-31T02:23:23.107Z,1013.95
2018-01-31T02:24:23.104Z,1013.94
2018-01-31T02:25:23.091Z,1013.98
2018-01-31T02:26:23.086Z,1013.93
2018-01-31T02:27:23.073Z,1013.93
2018-01-31T02:28:23.068Z,1013.86
2018-01-31T02:29:23.061Z,1013.86
2018-01-31T02:30:23.084Z,1013.82
2018-01-31T02:31:23.044Z,1013.86
2018-01-31T02:32:23.040Z,1013.85
2018-01-31T02:33:23.029Z,1013.82
2018-01-31T02:34:23.024Z,1013.83
2018-01-31T02:35:23.019Z,1013.81
2018-01-31T02:36:23.007Z,1013.77
2018-01-31T02:37:22.996Z,1013.74
2018-01-31T02:38:22.995Z,1013.74
2018-01-31T02:39:22.983Z,1013.73
2018-01-31T02:40:22.974Z,1013.72
2018-01-31T02:41:22.965Z,1013.69
2018-01-31T02:42:22.959Z,1013.70
2018-01-31T02:43:22.952Z,1013.69
2018-01-31T02:44:22.945Z,1013.67
2018-01-31T02:45:22.935Z,1013.65
2018-01-31T02:46:22.928Z,1013.61
2018-01-31T02:47:22.919Z,1013.59
2018-01-31T02:48:22.910Z,1013.58
2018-01-31T02:49:22.901Z,1013.57
2018-01-31T02:50:22.895Z,1013.50
2018-01-31T02:51:22.886Z,1013.47
2018-01-31T02:52:22.883Z,1013.40
2018-01-31T02:53:22.878Z,1013.36
2018-01-31T02:54:22.864Z,1013.39
2018-01-31T02:55:22.867Z,1013.33
2018-01-31T02:56:22.849Z,1013.31
2018-01-31T02:57:22.840Z,1013.34
2018-01-31T02:58:22.833Z,1013.30
2018-01-31T02:59:22.823Z,1013.28
2018-01-31T03:00:22.814Z,1013.27
2018-01-31T03:01:22.808Z,1013.20
2018-01-31T03:02:22.800Z,1013.17
2018-01-31T03:03:22.792Z,1013.17
2018-01-31T03:04:22.785Z,1013.19
2018-01-31T03:05:22.773Z,1013.15
2018-01-31T03:06:22.772Z,1013.14
2018-01-31T03:07:22.761Z,1013.13
2018-01-31T03:08:22.753Z,1013.15
2018-01-31T03:09:22.742Z,1013.09
2018-01-31T03:10:22.735Z,1013.13
2018-01-31T03:11:22.728Z,1013.12
2018-01-31T03:12:22.720Z,1013.11
2018-01-31T03:13:22.716Z,1013.06
2018-01-31T03:14:22.704Z,1013.09
2018-01-31T03:15:22.696Z,1013.10
2018-01-31T03:16:22.686Z,1013.03
2018-01-31T03:17:22.680Z,1013.05
2018-01-31T03:18:22.671Z,1013.03
2018-01-31T03:19:22.666Z,1013.04
2018-01-31T03:20:22.656Z,1013.00
2018-01-31T03:21:22.647Z,1013.01
2018-01-31T03:22:22.641Z,1013.03
2018-01-31T03:23:22.631Z,1013.01
2018-01-31T03:24:22.628Z,1012.99
2018-01-31T03:25:22.612Z,1013.02
2018-01-31T03:26:22.608Z,1013.05
2018-01-31T03:27:22.598Z,1013.07
2018-01-31T03:28:22.592Z,1013.05
2018-01-31T03:29:22.577Z,1012.95
2018-01-31T03:30:22.575Z,1012.94
2018-01-31T03:31:22.566Z,1012.92
2018-01-31T03:32:22.559Z,1012.91
2018-01-31T03:33:22.549Z,1012.86
2018-01-31T03:34:22.542Z,1012.84
2018-01-31T03:35:22.535Z,1012.86
2018-01-31T03:36:22.527Z,1012.83
2018-01-31T03:37:22.516Z,1012.80
2018-01-31T03:38:22.511Z,1012.79
2018-01-31T03:39:22.500Z,1012.75
2018-01-31T03:40:22.496Z,1012.73
2018-01-31T03:41:22.487Z,1012.73
2018-01-31T03:42:22.475Z,1012.68
2018-01-31T03:43:22.466Z,1012.66
2018-01-31T03:44:22.460Z,1012.62
2018-01-31T03:45:22.451Z,1012.59
2018-01-31T03:46:22.440Z,1012.50
2018-01-31T03:47:22.435Z,1012.43
2018-01-31T03:48:22.428Z,1012.40
2018-01-31T03:49:22.419Z,1012.34
2018-01-31T03:50:22.408Z,1012.37
2018-01-31T03:51:22.403Z,1012.32
2018-01-31T03:52:22.393Z,1012.29
2018-01-31T03:53:22.384Z,1012.31
2018-01-31T03:54:22.380Z,1012.29
2018-01-31T03:55:22.368Z,1012.29
2018-01-31T03:56:22.360Z,1012.31
2018-01-31T03:57:22.350Z,1012.32
2018-01-31T03:58:22.343Z,1012.30
2018-01-31T03:59:22.338Z,1012.30
2018-01-31T04:00:22.327Z,1012.30
2018-01-31T04:01:22.320Z,1012.25
2018-01-31T04:02:22.310Z,1012.26
2018-01-31T04:03:22.303Z,1012.23
2018-01-31T04:04:22.294Z,1012.18
2018-01-31T04:05:22.286Z,1012.19
2018-01-31T04:06:22.275Z,1012.18
2018-01-31T04:07:22.269Z,1012.13
2018-01-31T04:08:22.262Z,1012.19
2018-01-31T04:09:22.252Z,1012.15
2018-01-31T04:10:22.250Z,1012.17
2018-01-31T04:11:22.235Z,1012.21
2018-01-31T04:12:22.227Z,1012.25
2018-01-31T04:13:22.216Z,1012.23
2018-01-31T04:14:22.216Z,1012.23
2018-01-31T04:15:22.202Z,1012.20
2018-01-31T04:16:22.194Z,1012.19
2018-01-31T04:17:22.184Z,1012.18
2018-01-31T04:18:22.177Z,1012.18
2018-01-31T04:19:22.169Z,1012.15
2018-01-31T04:20:22.158Z,1012.12
2018-01-31T04:21:22.151Z,1012.09
2018-01-31T04:22:22.143Z,1012.03
2018-01-31T04:23:22.138Z,1012.03
2018-01-31T04:24:22.126Z,1012.01
2018-01-31T04:25:22.115Z,1011.98
2018-01-31T04:26:22.109Z,1012.00
2018-01-31T04:27:22.100Z,1012.00
2018-01-31T04:28:22.096Z,1011.92
2018-01-31T04:29:22.085Z,1011.87
2018-01-31T04:30:22.076Z,1011.83
2018-01-31T04:31:22.065Z,1011.82
2018-01-31T04:32:22.061Z,1011.78
2018-01-31T04:33:22.049Z,1011.71
2018-01-31T04:34:22.046Z,1011.71
2018-01-31T04:35:22.033Z,1011.69
2018-01-31T04:36:22.025Z,1011.69
2018-01-31T04:37:22.013Z,1011.64
2018-01-31T04:38:22.007Z,1011.62
2018-01-31T04:39:22.003Z,1011.58
2018-01-31T04:40:21.991Z,1011.54
2018-01-31T04:41:21.982Z,1011.51
2018-01-31T04:42:21.974Z,1011.47
2018-01-31T04:43:21.967Z,1011.46
2018-01-31T04:44:21.952Z,1011.42
2018-01-31T04:45:21.948Z,1011.39
2018-01-31T04:46:21.936Z,1011.35
2018-01-31T04:47:21.933Z,1011.29
2018-01-31T04:48:21.924Z,1011.24
2018-01-31T04:49:21.957Z,1011.17
2018-01-31T04:50:21.909Z,1011.21
2018-01-31T04:51:21.894Z,1011.16
2018-01-31T04:52:21.888Z,1011.14
2018-01-31T04:53:21.880Z,1011.10
2018-01-31T04:54:21.872Z,1011.07
2018-01-31T04:55:21.868Z,1011.06
2018-01-31T04:56:21.856Z,1011.08
2018-01-31T04:57:21.843Z,1011.01
2018-01-31T04:58:21.838Z,1011.02
2018-01-31T04:59:21.829Z,1011.02
2018-01-31T05:00:21.820Z,1010.98
2018-01-31T05:01:21.813Z,1011.00
2018-01-31T05:02:21.807Z,1010.95
2018-01-31T05:03:21.797Z,1010.97
2018-01-31T05:04:21.792Z,1010.89
2018-01-31T05:05:21.780Z,1010.89
2018-01-31T05:06:21.772Z,1010.92
2018-01-31T05:07:21.764Z,1010.88
2018-01-31T05:08:21.756Z,1010.77
2018-01-31T05:09:21.752Z,1010.77
2018-01-31T05:10:21.737Z,1010.68
2018-01-31T05:11:21.730Z,1010.68
2018-01-31T05:12:21.721Z,1010.68
2018-01-31T05:13:21.712Z,1010.65
2018-01-31T05:14:21.704Z,1010.66
2018-01-31T05:15:21.698Z,1010.64
2018-01-31T05:16:21.689Z,1010.60
2018-01-31T05:17:21.679Z,1010.57
2018-01-31T05:18:21.673Z,1010.52
2018-01-31T05:19:21.664Z,1010.50
2018-01-31T05:20:21.655Z,1010.46
2018-01-31T05:21:21.650Z,1010.43
2018-01-31T05:22:21.639Z,1010.29
2018-01-31T05:23:21.632Z,1010.24
2018-01-31T05:24:21.623Z,1010.22
2018-01-31T05:25:21.611Z,1010.16
2018-01-31T05:26:21.608Z,1010.11
2018-01-31T05:27:21.600Z,1010.12
2018-01-31T05:28:21.590Z,1010.08
2018-01-31T05:29:21.584Z,1010.07
2018-01-31T05:30:21.572Z,1010.10
2018-01-31T05:31:21.565Z,1010.05
2018-01-31T05:32:21.554Z,1009.99
2018-01-31T05:33:21.553Z,1010.00
2018-01-31T05:34:21.542Z,1009.98
2018-01-31T05:35:21.532Z,1009.91
2018-01-31T05:36:21.528Z,1009.83
2018-01-31T05:37:21.513Z,1009.88
2018-01-31T05:38:21.509Z,1009.88
2018-01-31T05:39:21.499Z,1009.84
2018-01-31T05:40:21.491Z,1009.88
2018-01-31T05:41:21.482Z,1009.83
2018-01-31T05:42:21.476Z,1009.82
2018-01-31T05:43:21.472Z,1009.76
2018-01-31T05:44:21.459Z,1009.78
2018-01-31T05:45:21.470Z,1009.74
2018-01-31T05:46:21.441Z,1009.79
2018-01-31T05:47:21.434Z,1009.77
2018-01-31T05:48:21.424Z,1009.82
2018-01-31T05:49:21.417Z,1009.82
2018-01-31T05:50:21.415Z,1009.77
2018-01-31T05:51:21.402Z,1009.77
2018-01-31T05:52:21.393Z,1009.73
2018-01-31T05:53:21.384Z,1009.66
2018-01-31T05:54:21.376Z,1009.68
2018-01-31T05:55:21.367Z,1009.65
2018-01-31T05:56:21.360Z,1009.54
2018-01-31T05:57:21.360Z,1009.54
2018-01-31T05:58:21.343Z,1009.46
2018-01-31T05:59:21.337Z,1009.38
2018-01-31T06:00:21.335Z,1009.37
2018-01-31T06:01:21.318Z,1009.36
2018-01-31T06:02:21.312Z,1009.33
2018-01-31T06:03:21.355Z,1009.29
2018-01-31T06:04:21.300Z,1009.21
2018-01-31T06:05:21.287Z,1009.18
2018-01-31T06:06:21.279Z,1009.17
2018-01-31T06:07:21.271Z,1009.18
2018-01-31T06:08:21.265Z,1009.14
2018-01-31T06:09:21.253Z,1009.09
2018-01-31T06:10:21.246Z,1009.05
2018-01-31T06:11:21.244Z,1009.06
2018-01-31T06:12:21.231Z,1009.03
2018-01-31T06:13:21.222Z,1008.97
2018-01-31T06:14:21.214Z,1009.03
2018-01-31T06:15:21.209Z,1009.01
2018-01-31T06:16:21.199Z,1009.00
2018-01-31T06:17:21.194Z,1009.02
2018-01-31T06:18:21.179Z,1008.94
2018-01-31T06:19:21.173Z,1008.98
2018-01-31T06:20:21.167Z,1009.00
2018-01-31T06:21:21.165Z,1008.96
2018-01-31T06:22:21.149Z,1008.95
2018-01-31T06:23:21.142Z,1008.90
2018-01-31T06:24:21.137Z,1008.90
2018-01-31T06:25:21.126Z,1008.93
2018-01-31T06:26:21.118Z,1008.99
2018-01-31T06:27:21.106Z,1008.92
2018-01-31T06:28:21.103Z,1008.93
2018-01-31T06:29:21.093Z,1008.85
2018-01-31T06:30:21.089Z,1008.84
2018-01-31T06:31:21.080Z,1008.79
2018-01-31T06:32:21.076Z,1008.72
2018-01-31T06:33:21.063Z,1008.75
2018-01-31T06:34:21.054Z,1008.68
2018-01-31T06:35:21.050Z,1008.64
2018-01-31T06:36:21.039Z,1008.58
2018-01-31T06:37:21.032Z,1008.64
2018-01-31T06:38:21.020Z,1008.54
2018-01-31T06:39:21.015Z,1008.54
2018-01-31T06:40:21.010Z,1008.57
2018-01-31T06:41:20.999Z,1008.50
2018-01-31T06:42:20.992Z,1008.52
2018-01-31T06:43:20.985Z,1008.46
2018-01-31T06:44:20.977Z,1008.45
2018-01-31T06:45:20.967Z,1008.46
2018-01-31T06:46:20.959Z,1008.46
2018-01-31T06:47:20.952Z,1008.41
2018-01-31T06:48:20.944Z,1008.42
2018-01-31T06:49:20.945Z,1008.42
2018-01-31T06:50:20.929Z,1008.35
2018-01-31T06:51:20.920Z,1008.35
2018-01-31T06:52:20.920Z,1008.34
2018-01-31T06:53:20.907Z,1008.42
2018-01-31T06:54:20.898Z,1008.28
2018-01-31T06:55:20.886Z,1008.29
2018-01-31T06:56:20.881Z,1008.33
2018-01-31T06:57:20.874Z,1008.25
2018-01-31T06:58:20.867Z,1008.26
2018-01-31T06:59:20.857Z,1008.22
2018-01-31T07:00:20.858Z,1008.22
2018-01-31T07:01:20.841Z,1008.18
2018-01-31T07:02:20.830Z,1008.15
2018-01-31T07:03:20.827Z,1008.09
2018-01-31T07:04:20.822Z,1008.04
2018-01-31T07:05:20.809Z,1008.00
2018-01-31T07:06:20.799Z,1007.95
2018-01-31T07:07:20.795Z,1007.98
2018-01-31T07:08:20.788Z,1007.93
2018-01-31T07:09:20.775Z,1007.94
2018-01-31T07:10:20.771Z,1007.95
2018-01-31T07:11:20.763Z,1007.89
2018-01-31T07:12:20.754Z,1007.84
2018-01-31T07:13:20.749Z,1007.79
2018-01-31T07:14:20.741Z,1007.74
2018-01-31T07:15:20.730Z,1007.84
2018-01-31T07:16:20.728Z,1007.87
2018-01-31T07:17:20.717Z,1007.86
2018-01-31T07:18:20.713Z,1007.84
2018-01-31T07:19:20.699Z,1007.74
2018-01-31T07:20:20.694Z,1007.74
2018-01-31T07:21:20.688Z,1007.73
2018-01-31T07:22:20.677Z,1007.74
2018-01-31T07:23:20.674Z,1007.70
2018-01-31T07:24:20.664Z,1007.66
2018-01-31T07:25:20.658Z,1007.60
2018-01-31T07:26:20.650Z,1007.59
2018-01-31T07:27:20.640Z,1007.52
2018-01-31T07:28:20.630Z,1007.49
2018-01-31T07:29:20.623Z,1007.37
2018-01-31T07:30:20.616Z,1007.39
2018-01-31T07:31:20.609Z,1007.35
2018-01-31T07:32:20.602Z,1007.31
2018-01-31T07:33:20.593Z,1007.28
2018-01-31T07:34:20.586Z,1007.24
2018-01-31T07:35:20.589Z,1007.19
2018-01-31T07:36:20.577Z,1007.17
2018-01-31T07:37:20.565Z,1007.15
2018-01-31T07:38:20.556Z,1007.10
2018-01-31T07:39:20.548Z,1007.12
2018-01-31T07:40:20.540Z,1007.01
2018-01-31T07:41:20.532Z,1006.98
2018-01-31T07:42:20.534Z,1006.95
2018-01-31T07:43:20.518Z,1006.93
2018-01-31T07:44:20.515Z,1006.95
2018-01-31T07:45:20.501Z,1006.94
2018-01-31T07:46:20.494Z,1006.87
2018-01-31T07:47:20.488Z,1006.89
2018-01-31T07:48:20.481Z,1006.86
2018-01-31T07:49:20.472Z,1006.77
2018-01-31T07:50:20.467Z,1006.76
2018-01-31T07:51:20.458Z,1006.72
2018-01-31T07:52:20.453Z,1006.76
2018-01-31T07:53:20.444Z,1006.65
2018-01-31T07:54:20.436Z,1006.68
2018-01-31T07:55:20.428Z,1006.64
2018-01-31T07:56:20.421Z,1006.62
2018-01-31T07:57:20.413Z,1006.57
2018-01-31T07:58:20.407Z,1006.56
2018-01-31T07:59:20.398Z,1006.57
2018-01-31T08:00:20.392Z,1006.58
2018-01-31T08:01:20.384Z,1006.49
2018-01-31T08:02:20.376Z,1006.50
2018-01-31T08:03:20.369Z,1006.49
2018-01-31T08:04:20.363Z,1006.51
2018-01-31T08:05:20.356Z,1006.57
2018-01-31T08:06:20.343Z,1006.52
2018-01-31T08:07:20.343Z,1006.55
2018-01-31T08:08:20.338Z,1006.48
2018-01-31T08:09:20.325Z,1006.48
2018-01-31T08:10:20.318Z,1006.48
2018-01-31T08:11:20.315Z,1006.46
2018-01-31T08:12:20.300Z,1006.42
2018-01-31T08:13:20.296Z,1006.40
2018-01-31T08:14:20.287Z,1006.33
2018-01-31T08:15:20.292Z,1006.31
2018-01-31T08:16:20.281Z,1006.25
2018-01-31T08:17:20.267Z,1006.16
2018-01-31T08:18:20.263Z,1006.16
2018-01-31T08:19:20.255Z,1006.16
2018-01-31T08:20:20.246Z,1006.12
2018-01-31T08:21:20.243Z,1006.10
2018-01-31T08:22:20.232Z,1006.10
2018-01-31T08:23:20.228Z,1006.09
2018-01-31T08:24:20.220Z,1006.05
2018-01-31T08:25:20.205Z,1006.00
2018-01-31T08:26:20.209Z,1006.04
2018-01-31T08:27:20.197Z,1005.98
2018-01-31T08:28:20.188Z,1005.92
2018-01-31T08:29:20.188Z,1005.96
2018-01-31T08:30:20.178Z,1005.94
2018-01-31T08:31:20.168Z,1005.91
2018-01-31T08:32:20.161Z,1005.83
2018-01-31T08:33:20.156Z,1005.88
2018-01-31T08:34:20.147Z,1005.83
2018-01-31T08:35:20.141Z,1005.84
2018-01-31T08:36:20.134Z,1005.75
2018-01-31T08:37:20.128Z,1005.70
2018-01-31T08:38:20.120Z,1005.61
2018-01-31T08:39:20.112Z,1005.64
2018-01-31T08:40:20.107Z,1005.64
2018-01-31T08:41:20.096Z,1005.62
2018-01-31T08:42:20.094Z,1005.62
2018-01-31T08:43:20.082Z,1005.55
2018-01-31T08:44:20.095Z,1005.43
2018-01-31T08:45:20.072Z,1005.56
2018-01-31T08:46:20.064Z,1005.51
2018-01-31T08:47:20.057Z,1005.43
2018-01-31T08:48:20.053Z,1005.38
2018-01-31T08:49:20.043Z,1005.39
2018-01-31T08:50:20.038Z,1005.35
2018-01-31T08:51:20.031Z,1005.34
2018-01-31T08:52:20.025Z,1005.28
2018-01-31T08:53:20.017Z,1005.31
2018-01-31T08:54:20.010Z,1005.24
2018-01-31T08:55:20.009Z,1005.19
2018-01-31T08:56:20.003Z,1005.22
2018-01-31T08:57:19.989Z,1005.18
2018-01-31T08:58:19.984Z,1005.14
2018-01-31T08:59:19.975Z,1005.12
2018-01-31T09:00:19.970Z,1005.09
2018-01-31T09:01:19.965Z,1005.08
2018-01-31T09:02:19.957Z,1004.97
2018-01-31T09:03:19.950Z,1004.97
2018-01-31T09:04:19.943Z,1004.97
2018-01-31T09:05:19.936Z,1004.94
2018-01-31T09:06:19.932Z,1004.90
2018-01-31T09:07:19.927Z,1004.92
2018-01-31T09:08:19.917Z,1004.89
2018-01-31T09:09:19.910Z,1004.83
2018-01-31T09:10:19.902Z,1004.83
2018-01-31T09:11:19.900Z,1004.78
2018-01-31T09:12:19.893Z,1004.83
2018-01-31T09:13:19.884Z,1004.84
2018-01-31T09:14:19.880Z,1004.75
2018-01-31T09:15:19.871Z,1004.74
2018-01-31T09:16:19.866Z,1004.76
2018-01-31T09:17:19.860Z,1004.77
2018-01-31T09:18:19.857Z,1004.82
2018-01-31T09:19:19.850Z,1004.69
2018-01-31T09:20:19.840Z,1004.68
2018-01-31T09:21:19.830Z,1004.70
2018-01-31T09:22:19.827Z,1004.69
2018-01-31T09:23:19.819Z,1004.63
2018-01-31T09:24:19.814Z,1004.61
2018-01-31T09:25:19.804Z,1004.58
2018-01-31T09:26:19.800Z,1004.62
2018-01-31T09:27:19.792Z,1004.56
2018-01-31T09:28:19.789Z,1004.57
2018-01-31T09:29:19.780Z,1004.53
2018-01-31T09:30:19.772Z,1004.54
2018-01-31T09:31:19.768Z,1004.52
2018-01-31T09:32:19.767Z,1004.46
2018-01-31T09:33:19.764Z,1004.45
2018-01-31T09:34:19.749Z,1004.49
2018-01-31T09:35:19.739Z,1004.42
2018-01-31T09:36:19.737Z,1004.35
2018-01-31T09:37:19.734Z,1004.41
2018-01-31T09:38:19.722Z,1004.40
2018-01-31T09:39:19.716Z,1004.34
2018-01-31T09:40:19.710Z,1004.30
2018-01-31T09:41:19.701Z,1004.33
2018-01-31T09:42:19.698Z,1004.31
2018-01-31T09:43:19.691Z,1004.31
2018-01-31T09:44:19.685Z,1004.29
2018-01-31T09:45:19.678Z,1004.29
2018-01-31T09:46:19.671Z,1004.25
2018-01-31T09:47:19.666Z,1004.30
2018-01-31T09:48:19.663Z,1004.20
2018-01-31T09:49:19.650Z,1004.23
2018-01-31T09:50:19.646Z,1004.19
2018-01-31T09:51:19.638Z,1004.18
2018-01-31T09:52:19.634Z,1004.14
2018-01-31T09:53:19.626Z,1004.19
2018-01-31T09:54:19.620Z,1004.10
2018-01-31T09:55:19.614Z,1004.11
2018-01-31T09:56:19.609Z,1004.10
2018-01-31T09:57:19.601Z,1004.11
2018-01-31T09:58:19.640Z,1004.03
2018-01-31T09:59:19.590Z,1004.02
2018-01-31T10:00:19.583Z,1004.05
2018-01-31T10:01:19.571Z,1004.00
2018-01-31T10:02:19.573Z,1003.96
2018-01-31T10:03:19.563Z,1003.99
2018-01-31T10:04:19.559Z,1003.98
2018-01-31T10:05:19.550Z,1003.95
2018-01-31T10:06:19.548Z,1003.91
2018-01-31T10:07:19.539Z,1003.88
2018-01-31T10:08:19.533Z,1003.87
2018-01-31T10:09:19.523Z,1003.86
2018-01-31T10:10:19.520Z,1003.85
2018-01-31T10:11:19.516Z,1003.82
2018-01-31T10:12:19.511Z,1003.76
2018-01-31T10:13:19.499Z,1003.76
2018-01-31T10:14:19.493Z,1003.68
2018-01-31T10:15:19.490Z,1003.68
2018-01-31T10:16:19.481Z,1003.71
2018-01-31T10:17:19.474Z,1003.67
2018-01-31T10:18:19.469Z,1003.60
2018-01-31T10:19:19.463Z,1003.59
2018-01-31T10:20:19.470Z,1003.55
2018-01-31T10:21:19.450Z,1003.53
2018-01-31T10:22:19.442Z,1003.56
2018-01-31T10:23:19.441Z,1003.54
2018-01-31T10:24:19.432Z,1003.46
2018-01-31T10:25:19.422Z,1003.48
2018-01-31T10:26:19.424Z,1003.45
2018-01-31T10:27:19.413Z,1003.40
2018-01-31T10:28:19.407Z,1003.40
2018-01-31T10:29:19.400Z,1003.38
2018-01-31T10:30:19.394Z,1003.35
2018-01-31T10:31:19.387Z,1003.39
2018-01-31T10:32:19.380Z,1003.29
2018-01-31T10:33:19.373Z,1003.31
2018-01-31T10:34:19.369Z,1003.28
2018-01-31T10:35:19.367Z,1003.22
2018-01-31T10:36:19.353Z,1003.25
2018-01-31T10:37:19.351Z,1003.14
2018-01-31T10:38:19.342Z,1003.09
2018-01-31T10:39:19.345Z,1003.06
2018-01-31T10:40:19.334Z,1003.03
2018-01-31T10:41:19.332Z,1003.00
2018-01-31T10:42:19.321Z,1002.97
2018-01-31T10:43:19.316Z,1002.92
2018-01-31T10:44:19.309Z,1002.90
2018-01-31T10:45:19.302Z,1002.83
2018-01-31T10:46:19.300Z,1002.86
2018-01-31T10:47:19.295Z,1002.83
2018-01-31T10:48:19.285Z,1002.83
2018-01-31T10:49:19.279Z,1002.83
2018-01-31T10:50:19.273Z,1002.77
2018-01-31T10:51:19.267Z,1002.75
2018-01-31T10:52:19.261Z,1002.72
2018-01-31T10:53:19.255Z,1002.71
2018-01-31T10:57:28.820Z,1002.64
2018-01-31T10:58:19.223Z,1002.58
2018-01-31T10:59:19.220Z,1002.57
2018-01-31T11:00:19.215Z,1002.56
2018-01-31T11:01:19.206Z,1002.53
2018-01-31T11:02:19.202Z,1002.49
2018-01-31T11:03:19.197Z,1002.46
2018-01-31T11:04:19.193Z,1002.47
2018-01-31T11:05:19.182Z,1002.43
2018-01-31T11:06:19.179Z,1002.40
2018-01-31T11:07:19.173Z,1002.38
2018-01-31T11:08:19.165Z,1002.37
2018-01-31T11:09:19.160Z,1002.38
2018-01-31T11:10:19.159Z,1002.34
2018-01-31T11:11:19.149Z,1002.30
2018-01-31T11:12:19.145Z,1002.27
2018-01-31T11:13:19.143Z,1002.23
2018-01-31T11:14:19.134Z,1002.23
2018-01-31T11:15:19.127Z,1002.13
2018-01-31T11:16:19.122Z,1002.08
2018-01-31T11:17:19.116Z,1002.07
2018-01-31T11:18:19.105Z,1002.03
2018-01-31T11:19:19.099Z,1002.01
2018-01-31T11:20:19.098Z,1001.96
2018-01-31T11:21:19.092Z,1002.00
2018-01-31T11:22:19.088Z,1001.91
2018-01-31T11:23:19.081Z,1001.88
2018-01-31T11:24:19.077Z,1001.89
2018-01-31T11:25:19.069Z,1001.88
2018-01-31T11:26:19.065Z,1001.85
2018-01-31T11:27:19.059Z,1001.86
2018-01-31T11:28:19.055Z,1001.80
2018-01-31T11:29:19.048Z,1001.80
2018-01-31T11:30:19.044Z,1001.78
2018-01-31T11:31:19.037Z,1001.77
2018-01-31T11:32:19.033Z,1001.74
2018-01-31T11:33:19.027Z,1001.76
2018-01-31T11:34:19.022Z,1001.72
2018-01-31T11:35:19.023Z,1001.69
2018-01-31T11:36:19.012Z,1001.71
2018-01-31T11:37:19.004Z,1001.69
2018-01-31T11:38:19.001Z,1001.67
2018-01-31T11:39:18.997Z,1001.60
2018-01-31T11:40:18.989Z,1001.56
2018-01-31T11:41:18.986Z,1001.56
2018-01-31T11:42:18.981Z,1001.49
2018-01-31T11:43:18.972Z,1001.51
2018-01-31T11:44:18.970Z,1001.47
2018-01-31T11:45:18.966Z,1001.46
2018-01-31T11:46:18.958Z,1001.47
2018-01-31T11:47:18.949Z,1001.44
2018-01-31T11:48:18.951Z,1001.47
2018-01-31T11:49:18.944Z,1001.42
2018-01-31T11:50:18.937Z,1001.38
2018-01-31T11:51:18.955Z,1001.36
2018-01-31T11:52:18.931Z,1001.34
2018-01-31T11:53:18.922Z,1001.28
2018-01-31T11:54:18.916Z,1001.32
2018-01-31T11:55:18.913Z,1001.29
2018-01-31T11:56:18.908Z,1001.32
2018-01-31T11:57:18.904Z,1001.27
2018-01-31T11:58:18.897Z,1001.21
2018-01-31T11:59:18.894Z,1001.20
2018-01-31T12:00:18.889Z,1001.17
2018-01-31T12:01:18.887Z,1001.10
2018-01-31T12:02:18.878Z,1001.05
2018-01-31T12:03:18.869Z,1001.05
2018-01-31T12:04:18.870Z,1001.04
2018-01-31T12:05:18.862Z,1000.94
2018-01-31T12:06:18.859Z,1000.94
2018-01-31T12:07:18.855Z,1000.92
2018-01-31T12:08:18.852Z,1000.83
2018-01-31T12:09:18.857Z,1000.83
2018-01-31T12:10:18.849Z,1000.79
2018-01-31T12:11:18.839Z,1000.80
2018-01-31T12:12:18.831Z,1000.75
2018-01-31T12:13:18.829Z,1000.74
2018-01-31T12:14:18.826Z,1000.69
2018-01-31T12:15:18.825Z,1000.68
2018-01-31T12:16:18.821Z,1000.63
2018-01-31T12:17:18.801Z,1000.56
2018-01-31T12:18:18.805Z,1000.54
2018-01-31T12:19:18.799Z,1000.56
2018-01-31T12:20:19.472Z,1000.54
2018-01-31T12:21:18.791Z,1000.51
2018-01-31T12:22:18.787Z,1000.49
2018-01-31T12:23:18.787Z,1000.45
2018-01-31T12:24:18.785Z,1000.45
2018-01-31T12:25:18.781Z,1000.39
2018-01-31T12:26:18.765Z,1000.41
2018-01-31T12:27:18.760Z,1000.35
2018-01-31T12:28:18.757Z,1000.31
2018-01-31T12:29:18.752Z,1000.29
2018-01-31T12:30:18.753Z,1000.29
2018-01-31T12:31:18.742Z,1000.19
2018-01-31T12:32:18.737Z,1000.22
2018-01-31T12:33:18.733Z,1000.18
2018-01-31T12:34:18.729Z,1000.17
2018-01-31T12:35:18.723Z,1000.16
2018-01-31T12:36:18.721Z,1000.17
2018-01-31T12:37:18.718Z,1000.10
2018-01-31T12:38:18.712Z,1000.09
2018-01-31T12:39:18.709Z,1000.07
2018-01-31T12:40:18.703Z,1000.08
2018-01-31T12:41:18.700Z,1000.02
2018-01-31T12:42:18.694Z,999.98
2018-01-31T12:43:18.691Z,999.99
2018-01-31T12:44:18.685Z,1000.00
2018-01-31T12:45:18.680Z,999.94
2018-01-31T12:46:18.678Z,999.95
2018-01-31T12:47:18.675Z,999.89
2018-01-31T12:48:18.669Z,999.91
2018-01-31T12:49:18.664Z,999.88
2018-01-31T12:50:18.659Z,999.85
2018-01-31T12:51:18.656Z,999.81
2018-01-31T12:52:18.651Z,999.79
2018-01-31T12:53:18.647Z,999.75
2018-01-31T12:54:18.644Z,999.70
2018-01-31T12:55:18.637Z,999.63
2018-01-31T12:56:18.634Z,999.66
2018-01-31T12:57:18.629Z,999.57
2018-01-31T12:58:18.626Z,999.56
2018-01-31T12:59:18.624Z,999.55
2018-01-31T13:00:18.617Z,999.52
2018-01-31T13:01:18.612Z,999.51
2018-01-31T13:02:18.608Z,999.45
2018-01-31T13:03:18.603Z,999.47
2018-01-31T13:04:18.604Z,999.40
2018-01-31T13:05:18.594Z,999.44
2018-01-31T13:06:18.592Z,999.44
2018-01-31T13:07:18.589Z,999.42
2018-01-31T13:08:18.586Z,999.44
2018-01-31T13:09:18.579Z,999.41
2018-01-31T13:10:18.576Z,999.46
2018-01-31T13:11:18.571Z,999.43
2018-01-31T13:12:18.569Z,999.41
2018-01-31T13:13:18.563Z,999.40
2018-01-31T13:14:18.560Z,999.37
2018-01-31T13:15:18.557Z,999.31
2018-01-31T13:16:18.549Z,999.26
2018-01-31T13:17:18.548Z,999.26
2018-01-31T13:18:18.543Z,999.29
2018-01-31T13:19:18.544Z,999.29
2018-01-31T13:20:18.536Z,999.22
2018-01-31T13:21:18.532Z,999.23
2018-01-31T13:22:18.528Z,999.17
2018-01-31T13:23:18.519Z,999.22
2018-01-31T13:24:18.524Z,999.16
2018-01-31T13:25:18.515Z,999.00
2018-01-31T13:26:18.510Z,999.07
2018-01-31T13:27:18.504Z,998.98
2018-01-31T13:28:18.505Z,999.06
2018-01-31T13:29:18.498Z,999.03
2018-01-31T13:30:18.495Z,999.01
2018-01-31T13:31:18.491Z,998.98
2018-01-31T13:32:18.486Z,998.97
2018-01-31T13:33:18.482Z,998.89
2018-01-31T13:34:18.477Z,998.88
2018-01-31T13:35:18.474Z,998.88
2018-01-31T13:36:18.469Z,998.84
2018-01-31T13:37:18.465Z,998.82
2018-01-31T13:38:18.462Z,998.82
2018-01-31T13:39:18.466Z,998.89
2018-01-31T13:40:18.453Z,998.83
2018-01-31T13:41:18.449Z,998.82
2018-01-31T13:42:18.445Z,998.75
2018-01-31T13:43:18.441Z,998.75
2018-01-31T13:44:18.442Z,998.65
2018-01-31T13:45:18.433Z,998.66
2018-01-31T13:46:18.430Z,998.58
2018-01-31T13:47:18.423Z,998.63
2018-01-31T13:48:18.420Z,998.61
2018-01-31T13:49:18.416Z,998.58
2018-01-31T13:50:18.413Z,998.57
2018-01-31T13:51:18.410Z,998.59
2018-01-31T13:52:18.405Z,998.55
2018-01-31T13:53:18.399Z,998.49
2018-01-31T13:54:18.396Z,998.47
2018-01-31T13:55:18.392Z,998.44
2018-01-31T13:56:18.389Z,998.36
2018-01-31T13:57:18.385Z,998.31
2018-01-31T13:58:18.380Z,998.31
2018-01-31T13:59:18.377Z,998.30
2018-01-31T14:00:18.371Z,998.27
2018-01-31T14:01:18.368Z,998.26
2018-01-31T14:02:18.363Z,998.26